createdAt,value
2019-02-09T00:01:35.559Z,101.50
2019-02-09T00:03:42.914Z,97.30
2019-02-09T00:05:50.419Z,97.43
2019-02-09T00:07:57.819Z,94.23
2019-02-09T00:10:05.216Z,102.73
2019-02-09T00:12:12.742Z,89.80
2019-02-09T00:14:20.092Z,93.23
2019-02-09T00:16:28.607Z,94.13
2019-02-09T00:18:35.969Z,104.60
2019-02-09T00:20:43.528Z,94.27
2019-02-09T00:22:50.808Z,90.33
2019-02-09T00:24:58.189Z,93.97
2019-02-09T00:27:05.752Z,92.67
2019-02-09T00:29:13.001Z,105.10
2019-02-09T00:31:20.445Z,92.53
2019-02-09T00:33:27.748Z,91.20
2019-02-09T00:35:35.128Z,102.60
2019-02-09T00:37:42.618Z,102.73
2019-02-09T00:39:50.181Z,109.90
2019-02-09T00:41:57.499Z,113.97
2019-02-09T00:44:04.923Z,109.27
2019-02-09T00:46:12.779Z,111.27
2019-02-09T00:48:20.166Z,113.40
2019-02-09T00:50:27.765Z,111.20
2019-02-09T00:52:35.259Z,110.77
2019-02-09T00:54:42.507Z,117.90
2019-02-09T00:56:49.853Z,111.30
2019-02-09T00:58:57.478Z,113.30
2019-02-09T01:01:04.941Z,120.13
2019-02-09T01:03:12.492Z,112.77
2019-02-09T01:05:22.686Z,110.70
2019-02-09T01:07:30.210Z,110.17
2019-02-09T01:09:37.640Z,106.37
2019-02-09T01:11:45.346Z,101.23
2019-02-09T01:13:52.694Z,96.50
2019-02-09T01:16:00.165Z,106.73
2019-02-09T01:18:07.946Z,116.00
2019-02-09T01:20:21.505Z,99.33
2019-02-09T01:22:29.032Z,103.93
2019-02-09T01:24:36.575Z,110.40
2019-02-09T01:26:43.972Z,101.13
2019-02-09T01:28:51.514Z,104.93
2019-02-09T01:30:58.861Z,104.00
2019-02-09T01:33:06.289Z,111.87
2019-02-09T01:35:14.079Z,98.47
2019-02-09T01:37:21.620Z,111.97
2019-02-09T01:39:29.113Z,103.97
2019-02-09T01:41:36.593Z,92.57
2019-02-09T01:43:43.994Z,109.57
2019-02-09T01:45:51.306Z,105.53
2019-02-09T01:47:58.590Z,98.80
2019-02-09T01:50:07.287Z,99.47
2019-02-09T01:52:14.647Z,101.00
2019-02-09T01:54:21.988Z,92.70
2019-02-09T01:56:29.430Z,90.93
2019-02-09T01:58:36.892Z,102.23
2019-02-09T02:00:44.349Z,104.07
2019-02-09T02:02:51.913Z,97.77
2019-02-09T02:04:59.447Z,104.33
2019-02-09T02:07:06.937Z,100.60
2019-02-09T02:09:14.452Z,101.20
2019-02-09T02:11:21.928Z,105.83
2019-02-09T02:13:29.439Z,106.33
2019-02-09T02:15:37.357Z,97.97
2019-02-09T02:17:44.862Z,102.07
2019-02-09T02:19:52.190Z,103.93
2019-02-09T02:21:59.612Z,106.57
2019-02-09T02:24:07.059Z,106.97
2019-02-09T02:26:17.963Z,99.27
2019-02-09T02:28:25.684Z,95.80
2019-02-09T02:30:35.791Z,105.37
2019-02-09T02:32:43.185Z,92.50
2019-02-09T02:34:50.711Z,91.23
2019-02-09T02:36:58.073Z,101.27
2019-02-09T02:39:07.978Z,96.07
2019-02-09T02:41:15.391Z,93.63
2019-02-09T02:43:22.911Z,101.13
2019-02-09T02:45:30.255Z,103.97
2019-02-09T02:47:37.700Z,94.33
2019-02-09T02:49:45.058Z,93.67
2019-02-09T02:51:52.631Z,88.77
2019-02-09T02:54:00.191Z,87.93
2019-02-09T02:56:07.674Z,102.33
2019-02-09T02:58:14.959Z,110.73
2019-02-09T03:00:31.841Z,97.97
2019-02-09T03:02:33.869Z,98.30
2019-02-09T03:04:41.374Z,92.30
2019-02-09T03:06:48.848Z,86.47
2019-02-09T03:08:56.314Z,94.60
2019-02-09T03:11:03.773Z,96.80
2019-02-09T03:13:11.252Z,105.67
2019-02-09T03:15:24.468Z,93.60
2019-02-09T03:17:31.886Z,88.17
2019-02-09T03:19:39.103Z,97.57
2019-02-09T03:21:46.429Z,105.60
2019-02-09T03:23:53.908Z,89.30
2019-02-09T03:26:01.299Z,89.27
2019-02-09T03:28:08.906Z,87.63
2019-02-09T03:30:17.371Z,91.53
2019-02-09T03:32:24.844Z,89.83
2019-02-09T03:34:32.211Z,85.03
2019-02-09T03:36:39.664Z,102.00
2019-02-09T03:38:47.073Z,100.27
2019-02-09T03:40:54.545Z,96.57
2019-02-09T03:43:01.787Z,93.87
2019-02-09T03:45:12.971Z,88.13
2019-02-09T03:47:21.489Z,86.60
2019-02-09T03:49:28.947Z,93.80
2019-02-09T03:51:36.386Z,100.27
2019-02-09T03:53:43.794Z,100.23
2019-02-09T03:55:51.189Z,88.50
2019-02-09T03:57:58.560Z,91.33
2019-02-09T04:00:09.498Z,89.20
2019-02-09T04:02:16.944Z,89.13
2019-02-09T04:04:24.372Z,89.20
2019-02-09T04:06:31.772Z,88.40
2019-02-09T04:08:39.237Z,91.70
2019-02-09T04:10:46.680Z,98.67
2019-02-09T04:12:53.896Z,96.60
2019-02-09T04:15:01.175Z,92.00
2019-02-09T04:17:08.476Z,92.27
2019-02-09T04:19:15.986Z,86.57
2019-02-09T04:21:23.430Z,94.97
2019-02-09T04:23:30.878Z,81.77
2019-02-09T04:25:38.248Z,93.97
2019-02-09T04:27:45.755Z,80.37
2019-02-09T04:29:52.927Z,84.40
2019-02-09T04:32:00.317Z,87.87
2019-02-09T04:34:07.858Z,78.43
2019-02-09T04:36:15.308Z,92.93
2019-02-09T04:38:22.731Z,75.97
2019-02-09T04:40:33.767Z,84.13
2019-02-09T04:42:41.153Z,82.17
2019-02-09T04:44:48.487Z,78.27
2019-02-09T04:46:55.861Z,79.23
2019-02-09T04:49:03.285Z,80.93
2019-02-09T04:51:10.657Z,83.13
2019-02-09T04:53:17.950Z,76.50
2019-02-09T04:55:26.122Z,86.93
2019-02-09T04:57:33.530Z,73.83
2019-02-09T04:59:40.915Z,82.47
2019-02-09T05:01:48.295Z,77.93
2019-02-09T05:03:55.754Z,76.50
2019-02-09T05:06:03.158Z,77.53
2019-02-09T05:08:10.409Z,79.97
2019-02-09T05:10:18.501Z,87.77
2019-02-09T05:12:25.947Z,84.83
2019-02-09T05:14:33.310Z,79.87
2019-02-09T05:16:40.747Z,78.50
2019-02-09T05:18:48.055Z,76.83
2019-02-09T05:20:55.402Z,77.87
2019-02-09T05:23:02.639Z,77.93
2019-02-09T05:25:10.464Z,83.00
2019-02-09T05:27:18.087Z,74.70
2019-02-09T05:29:25.282Z,75.83
2019-02-09T05:31:32.742Z,74.73
2019-02-09T05:33:41.126Z,76.47
2019-02-09T05:35:48.668Z,69.20
2019-02-09T05:37:55.951Z,69.17
2019-02-09T05:40:03.468Z,70.07
2019-02-09T05:42:10.835Z,71.97
2019-02-09T05:44:18.310Z,72.07
2019-02-09T05:46:25.607Z,70.90
2019-02-09T05:48:33.083Z,66.43
2019-02-09T05:50:40.542Z,64.73
2019-02-09T05:52:48.005Z,73.77
2019-02-09T05:54:55.449Z,73.63
2019-02-09T05:57:02.930Z,66.90
2019-02-09T05:59:10.242Z,69.70
2019-02-09T06:01:17.831Z,69.40
2019-02-09T06:03:25.271Z,76.30
2019-02-09T06:05:32.736Z,77.00
2019-02-09T06:07:40.246Z,72.37
2019-02-09T06:09:47.630Z,72.63
2019-02-09T06:11:54.944Z,87.47
2019-02-09T06:14:02.414Z,75.40
2019-02-09T06:16:09.705Z,68.13
2019-02-09T06:18:17.179Z,70.03
2019-02-09T06:20:26.085Z,72.93
2019-02-09T06:22:33.474Z,73.43
2019-02-09T06:24:40.888Z,72.67
2019-02-09T06:26:48.363Z,82.57
2019-02-09T06:28:55.676Z,100.83
2019-02-09T06:31:02.966Z,100.27
2019-02-09T06:33:10.238Z,98.33
2019-02-09T06:35:17.520Z,130.47
2019-02-09T06:37:24.854Z,104.33
2019-02-09T06:39:32.180Z,156.47
2019-02-09T06:41:39.619Z,106.27
2019-02-09T06:43:47.122Z,100.93
2019-02-09T06:45:54.465Z,127.07
2019-02-09T06:48:39.301Z,116.17
2019-02-09T06:50:46.759Z,101.10
2019-02-09T06:52:54.094Z,93.53
2019-02-09T06:55:01.671Z,82.57
2019-02-09T06:57:08.998Z,110.60
2019-02-09T06:59:16.445Z,112.60
2019-02-09T07:01:23.803Z,138.77
2019-02-09T07:03:31.345Z,115.47
2019-02-09T07:05:38.890Z,95.43
2019-02-09T07:07:46.422Z,88.13
2019-02-09T07:09:53.712Z,89.80
2019-02-09T07:12:01.140Z,81.17
2019-02-09T07:14:08.589Z,82.40
2019-02-09T07:16:15.996Z,90.70
2019-02-09T07:18:23.414Z,95.40
2019-02-09T07:20:30.677Z,89.70
2019-02-09T07:22:37.977Z,87.10
2019-02-09T07:24:45.422Z,100.20
2019-02-09T07:26:52.640Z,116.27
2019-02-09T07:29:00.113Z,139.73
2019-02-09T07:31:07.573Z,139.23
2019-02-09T07:33:15.027Z,117.23
2019-02-09T07:35:22.467Z,138.00
2019-02-09T07:37:29.772Z,115.70
2019-02-09T07:39:37.220Z,115.87
2019-02-09T07:41:44.329Z,121.07
2019-02-09T07:43:51.701Z,119.03
2019-02-09T07:45:58.896Z,127.43
2019-02-09T07:48:06.500Z,101.33
2019-02-09T07:50:15.777Z,107.87
2019-02-09T07:52:23.069Z,95.10
2019-02-09T07:54:30.556Z,112.27
2019-02-09T07:56:37.783Z,111.07
2019-02-09T07:58:45.050Z,144.47
2019-02-09T08:00:52.394Z,162.17
2019-02-09T08:02:59.610Z,129.90
2019-02-09T08:05:07.237Z,162.50
2019-02-09T08:07:14.879Z,139.33
2019-02-09T08:09:22.220Z,138.63
2019-02-09T08:11:29.418Z,136.97
2019-02-09T08:13:36.920Z,141.93
2019-02-09T08:15:44.222Z,108.93
2019-02-09T08:17:51.707Z,109.93
2019-02-09T08:19:59.290Z,127.97
2019-02-09T08:22:06.676Z,124.33
2019-02-09T08:24:13.901Z,126.07
2019-02-09T08:26:21.275Z,121.93
2019-02-09T08:28:28.516Z,139.97
2019-02-09T08:30:42.167Z,124.47
2019-02-09T08:32:49.467Z,118.73
2019-02-09T08:34:56.984Z,125.77
2019-02-09T08:37:04.701Z,127.60
2019-02-09T08:39:12.175Z,117.07
2019-02-09T08:41:19.349Z,93.57
2019-02-09T08:43:26.595Z,102.97
2019-02-09T08:45:34.133Z,101.80
2019-02-09T08:47:41.430Z,93.40
2019-02-09T08:49:48.801Z,106.37
2019-02-09T08:51:56.474Z,104.07
2019-02-09T08:54:03.830Z,113.17
2019-02-09T08:56:11.188Z,105.20
2019-02-09T08:58:18.661Z,99.20
2019-02-09T09:00:28.193Z,99.67
2019-02-09T09:02:35.508Z,93.53
2019-02-09T09:04:42.703Z,103.37
2019-02-09T09:06:50.175Z,88.63
2019-02-09T09:08:57.506Z,87.27
2019-02-09T09:11:04.807Z,85.73
2019-02-09T09:13:12.126Z,89.17
2019-02-09T09:15:33.260Z,120.50
2019-02-09T09:17:40.613Z,119.80
2019-02-09T09:19:47.967Z,123.60
2019-02-09T09:21:55.250Z,152.13
2019-02-09T09:24:02.572Z,104.00
2019-02-09T09:26:10.090Z,82.17
2019-02-09T09:28:17.360Z,80.90
2019-02-09T09:30:26.168Z,76.93
2019-02-09T09:32:33.768Z,70.83
2019-02-09T09:34:41.110Z,69.27
2019-02-09T09:36:48.846Z,69.30
2019-02-09T09:38:56.509Z,71.40
2019-02-09T09:41:03.890Z,74.17
2019-02-09T09:43:11.435Z,96.63
2019-02-09T09:45:22.654Z,103.67
2019-02-09T09:47:30.076Z,77.20
2019-02-09T09:49:37.511Z,64.07
2019-02-09T09:51:44.926Z,74.63
2019-02-09T09:53:52.214Z,82.70
2019-02-09T09:55:59.791Z,77.60
2019-02-09T09:58:07.388Z,73.50
2019-02-09T10:00:16.626Z,82.83
2019-02-09T10:02:23.903Z,75.17
2019-02-09T10:04:31.218Z,78.67
2019-02-09T10:06:38.354Z,94.63
2019-02-09T10:08:45.867Z,84.33
2019-02-09T10:11:26.202Z,66.70
2019-02-09T10:13:25.627Z,59.57
2019-02-09T10:15:33.272Z,54.43
2019-02-09T10:17:40.784Z,66.03
2019-02-09T10:20:01.097Z,51.53
2019-02-09T10:22:09.028Z,56.60
2019-02-09T10:24:16.447Z,53.03
2019-02-09T10:26:32.770Z,56.13
2019-02-09T10:28:40.543Z,55.53
2019-02-09T10:30:49.795Z,54.37
2019-02-09T10:32:57.191Z,53.90
2019-02-09T10:35:04.668Z,51.63
2019-02-09T10:37:12.118Z,50.80
2019-02-09T10:39:19.553Z,52.90
2019-02-09T10:41:27.170Z,55.20
2019-02-09T10:43:35.163Z,47.87
2019-02-09T10:45:43.243Z,49.07
2019-02-09T10:47:50.913Z,48.77
2019-02-09T10:50:00.678Z,47.90
2019-02-09T10:52:11.620Z,46.43
2019-02-09T10:54:24.021Z,45.43
2019-02-09T10:56:35.665Z,46.13
2019-02-09T10:58:44.181Z,44.97
2019-02-09T11:01:37.513Z,42.63
2019-02-09T11:03:47.001Z,42.27
2019-02-09T11:05:56.153Z,46.37
2019-02-09T11:08:05.286Z,48.27
2019-02-09T11:10:15.150Z,44.70
2019-02-09T11:12:24.147Z,43.13
2019-02-09T11:14:35.008Z,51.00
2019-02-09T11:16:44.777Z,41.17
2019-02-09T11:18:54.966Z,44.07
2019-02-09T11:21:04.710Z,41.73
2019-02-09T11:23:15.261Z,45.43
2019-02-09T11:25:23.044Z,42.30
2019-02-09T11:27:30.655Z,43.93
2019-02-09T11:29:38.169Z,56.97
2019-02-09T11:31:46.168Z,51.07
2019-02-09T11:33:53.661Z,44.73
2019-02-09T11:36:01.218Z,47.73
2019-02-09T11:38:08.705Z,47.23
2019-02-09T11:40:17.503Z,46.30
2019-02-09T11:42:26.438Z,44.10
2019-02-09T11:44:40.863Z,51.50
2019-02-09T11:46:43.267Z,44.40
2019-02-09T11:48:50.704Z,47.50
2019-02-09T11:50:59.102Z,46.53
2019-02-09T11:53:07.351Z,45.93
2019-02-09T11:55:15.955Z,51.13
2019-02-09T11:57:23.535Z,47.40
2019-02-09T11:59:31.148Z,48.63
2019-02-09T12:01:38.690Z,50.70
2019-02-09T12:03:46.122Z,45.37
2019-02-09T12:05:53.560Z,42.43
2019-02-09T12:08:01.175Z,44.23
2019-02-09T12:10:09.454Z,44.37
2019-02-09T12:12:16.670Z,47.67
2019-02-09T12:14:24.066Z,41.27
2019-02-09T12:16:31.506Z,41.47
2019-02-09T12:18:38.816Z,44.63
2019-02-09T12:20:46.244Z,39.60
2019-02-09T12:22:53.425Z,41.13
2019-02-09T12:25:00.731Z,38.77
2019-02-09T12:27:08.257Z,37.90
2019-02-09T12:29:15.738Z,45.97
2019-02-09T12:31:23.145Z,45.33
2019-02-09T12:33:30.633Z,39.23
2019-02-09T12:35:37.966Z,39.37
2019-02-09T12:37:45.452Z,40.77
2019-02-09T12:39:52.876Z,38.53
2019-02-09T12:42:00.526Z,38.67
2019-02-09T12:44:07.933Z,37.93
2019-02-09T12:46:18.824Z,43.87
2019-02-09T12:48:26.241Z,40.83
2019-02-09T12:50:35.246Z,38.10
2019-02-09T12:52:42.762Z,45.30
2019-02-09T12:54:50.171Z,40.50
2019-02-09T12:56:57.639Z,40.37
2019-02-09T12:59:05.148Z,38.17
2019-02-09T13:01:12.651Z,39.80
2019-02-09T13:03:31.350Z,39.43
2019-02-09T13:05:38.991Z,35.10
2019-02-09T13:07:46.501Z,38.93
2019-02-09T13:09:53.975Z,38.90
2019-02-09T13:12:01.520Z,41.80
2019-02-09T13:14:09.112Z,42.20
2019-02-09T13:16:16.723Z,43.20
2019-02-09T13:18:24.310Z,45.00
2019-02-09T13:20:31.482Z,43.00
2019-02-09T13:22:39.235Z,44.73
2019-02-09T13:24:46.773Z,43.17
2019-02-09T13:26:54.173Z,46.77
2019-02-09T13:29:01.691Z,47.67
2019-02-09T13:31:08.785Z,49.80
2019-02-09T13:33:16.308Z,43.60
2019-02-09T13:35:23.772Z,43.97
2019-02-09T13:37:31.202Z,49.87
2019-02-09T13:39:38.573Z,48.43
2019-02-09T13:41:45.774Z,48.57
2019-02-09T13:43:53.475Z,45.37
2019-02-09T13:46:00.831Z,42.93
2019-02-09T13:48:08.353Z,46.77
2019-02-09T13:50:15.922Z,45.93
2019-02-09T13:52:23.386Z,44.90
2019-02-09T13:54:30.844Z,47.17
2019-02-09T13:56:38.320Z,45.00
2019-02-09T13:58:45.811Z,44.20
2019-02-09T14:00:53.205Z,45.00
2019-02-09T14:03:00.693Z,43.10
2019-02-09T14:05:08.706Z,46.87
2019-02-09T14:07:16.477Z,47.87
2019-02-09T14:09:24.208Z,50.20
2019-02-09T14:11:31.774Z,50.33
2019-02-09T14:13:39.224Z,50.17
2019-02-09T14:15:46.772Z,49.37
2019-02-09T14:17:54.094Z,48.83
2019-02-09T14:20:01.864Z,49.33
2019-02-09T14:22:09.303Z,49.87
2019-02-09T14:24:16.759Z,50.90
2019-02-09T14:26:24.212Z,49.13
2019-02-09T14:28:31.710Z,52.33
2019-02-09T14:30:39.242Z,47.60
2019-02-09T14:32:46.890Z,68.40
2019-02-09T14:34:54.271Z,74.17
2019-02-09T14:37:01.641Z,87.07
2019-02-09T14:39:12.747Z,68.07
2019-02-09T14:41:20.010Z,59.17
2019-02-09T14:43:27.522Z,54.27
2019-02-09T14:45:41.080Z,50.73
2019-02-09T14:47:48.910Z,47.30
2019-02-09T14:49:56.572Z,52.30
2019-02-09T14:52:04.780Z,50.17
2019-02-09T14:54:13.012Z,54.63
2019-02-09T14:56:20.613Z,53.00
2019-02-09T14:58:28.687Z,57.07
2019-02-09T15:00:59.165Z,54.13
2019-02-09T15:03:08.337Z,50.90
2019-02-09T15:05:16.314Z,45.23
2019-02-09T15:07:24.021Z,51.90
2019-02-09T15:09:31.485Z,39.87
2019-02-09T15:11:38.904Z,44.97
2019-02-09T15:13:46.425Z,43.97
2019-02-09T15:16:14.667Z,52.43
2019-02-09T15:18:22.146Z,47.57
2019-02-09T15:20:33.905Z,51.23
2019-02-09T15:22:41.660Z,47.53
2019-02-09T15:24:49.375Z,46.67
2019-02-09T15:26:57.057Z,50.83
2019-02-09T15:29:04.579Z,55.40
2019-02-09T15:31:13.081Z,45.27
2019-02-09T15:33:20.768Z,48.73
2019-02-09T15:35:28.164Z,40.50
2019-02-09T15:37:35.851Z,42.87
2019-02-09T15:39:43.259Z,43.63
2019-02-09T15:41:50.765Z,42.03
2019-02-09T15:43:58.280Z,53.93
2019-02-09T15:46:05.840Z,49.20
2019-02-09T15:48:13.407Z,46.17
2019-02-09T15:50:20.834Z,44.40
2019-02-09T15:52:28.499Z,43.10
2019-02-09T15:54:36.384Z,43.23
2019-02-09T15:56:43.890Z,50.60
2019-02-09T15:58:51.354Z,43.23
2019-02-09T16:00:58.873Z,46.20
2019-02-09T16:03:07.084Z,41.43
2019-02-09T16:05:14.816Z,41.73
2019-02-09T16:07:22.243Z,48.60
2019-02-09T16:09:30.151Z,54.40
2019-02-09T16:11:37.695Z,43.97
2019-02-09T16:13:45.973Z,51.43
2019-02-09T16:15:53.609Z,47.10
2019-02-09T16:18:01.496Z,44.60
2019-02-09T16:20:10.999Z,51.63
2019-02-09T16:22:18.932Z,50.20
2019-02-09T16:24:26.629Z,47.97
2019-02-09T16:26:34.216Z,42.17
2019-02-09T16:28:41.685Z,38.60
2019-02-09T16:30:49.295Z,41.63
2019-02-09T16:32:56.893Z,41.63
2019-02-09T16:35:04.451Z,47.87
2019-02-09T16:37:12.035Z,45.60
2019-02-09T16:39:19.592Z,45.53
2019-02-09T16:41:27.066Z,51.07
2019-02-09T16:43:34.763Z,41.67
2019-02-09T16:45:42.112Z,45.00
2019-02-09T16:47:50.367Z,42.10
2019-02-09T16:49:57.934Z,40.73
2019-02-09T16:52:05.634Z,43.33
2019-02-09T16:54:12.966Z,39.80
2019-02-09T16:56:20.847Z,47.37
2019-02-09T16:58:28.401Z,47.07
2019-02-09T17:00:41.308Z,46.00
2019-02-09T17:02:48.759Z,41.03
2019-02-09T17:04:56.390Z,40.27
2019-02-09T17:07:03.811Z,33.30
2019-02-09T17:09:11.658Z,41.57
2019-02-09T17:11:19.360Z,37.23
2019-02-09T17:13:26.877Z,47.73
2019-02-09T17:15:34.370Z,45.53
2019-02-09T17:17:41.958Z,59.30
2019-02-09T17:19:50.411Z,47.93
2019-02-09T17:21:58.021Z,64.47
2019-02-09T17:24:05.981Z,46.97
2019-02-09T17:26:15.021Z,49.67
2019-02-09T17:28:22.758Z,49.23
2019-02-09T17:30:30.993Z,41.43
2019-02-09T17:32:38.883Z,39.07
2019-02-09T17:34:46.505Z,38.57
2019-02-09T17:36:53.988Z,34.93
2019-02-09T17:39:01.826Z,33.47
2019-02-09T17:41:09.424Z,34.80
2019-02-09T17:43:17.037Z,34.33
2019-02-09T17:45:31.171Z,39.60
2019-02-09T17:47:38.851Z,43.50
2019-02-09T17:49:46.679Z,42.67
2019-02-09T17:51:54.440Z,57.33
2019-02-09T17:54:01.852Z,41.07
2019-02-09T17:56:09.538Z,38.80
2019-02-09T17:58:17.340Z,42.83
2019-02-09T18:00:48.487Z,36.03
2019-02-09T18:02:56.197Z,33.57
2019-02-09T18:05:03.724Z,41.23
2019-02-09T18:07:11.417Z,47.90
2019-02-09T18:09:18.986Z,66.53
2019-02-09T18:11:26.585Z,65.77
2019-02-09T18:13:34.010Z,58.57
2019-02-09T18:15:41.594Z,46.67
2019-02-09T18:17:49.046Z,44.60
2019-02-09T18:19:56.589Z,46.87
2019-02-09T18:22:04.070Z,48.43
2019-02-09T18:24:11.662Z,39.97
2019-02-09T18:26:19.108Z,36.70
2019-02-09T18:28:26.820Z,29.77
2019-02-09T18:30:34.193Z,40.00
2019-02-09T18:32:41.732Z,38.20
2019-02-09T18:34:55.874Z,35.17
2019-02-09T18:36:58.732Z,35.07
2019-02-09T18:39:10.852Z,41.07
2019-02-09T18:41:18.285Z,36.17
2019-02-09T18:43:25.844Z,35.87
2019-02-09T18:45:33.284Z,35.33
2019-02-09T18:47:40.804Z,35.60
2019-02-09T18:49:48.364Z,37.00
2019-02-09T18:51:55.973Z,39.30
2019-02-09T18:54:03.597Z,46.30
2019-02-09T18:56:11.064Z,50.00
2019-02-09T18:58:19.798Z,54.93
2019-02-09T19:00:29.905Z,61.23
2019-02-09T19:02:38.620Z,46.40
2019-02-09T19:04:46.589Z,46.40
2019-02-09T19:06:54.570Z,43.13
2019-02-09T19:09:02.194Z,40.70
2019-02-09T19:11:10.286Z,39.53
2019-02-09T19:13:18.095Z,35.20
2019-02-09T19:15:27.506Z,34.73
2019-02-09T19:17:35.402Z,45.40
2019-02-09T19:19:43.127Z,38.47
2019-02-09T19:21:50.646Z,46.43
2019-02-09T19:23:58.341Z,51.87
2019-02-09T19:26:05.843Z,48.50
2019-02-09T19:28:13.280Z,47.97
2019-02-09T19:30:22.417Z,46.53
2019-02-09T19:32:30.367Z,45.43
2019-02-09T19:34:37.931Z,49.23
2019-02-09T19:36:45.799Z,36.43
2019-02-09T19:38:53.309Z,41.03
2019-02-09T19:41:01.125Z,41.47
2019-02-09T19:43:08.629Z,40.53
2019-02-09T19:45:25.767Z,41.83
2019-02-09T19:47:33.471Z,45.17
2019-02-09T19:49:41.024Z,45.60
2019-02-09T19:51:48.593Z,44.73
2019-02-09T19:53:56.239Z,43.80
2019-02-09T19:56:03.969Z,40.47
2019-02-09T19:58:11.543Z,45.07
2019-02-09T20:00:26.018Z,42.70
2019-02-09T20:02:33.734Z,43.20
2019-02-09T20:04:41.411Z,46.53
2019-02-09T20:06:48.906Z,56.30
2019-02-09T20:08:58.062Z,41.80
2019-02-09T20:11:05.295Z,43.43
2019-02-09T20:13:13.051Z,39.07
2019-02-09T20:15:21.125Z,45.07
2019-02-09T20:17:28.922Z,57.07
2019-02-09T20:19:36.600Z,54.97
2019-02-09T20:21:44.434Z,59.90
2019-02-09T20:23:52.006Z,46.43
2019-02-09T20:25:59.489Z,38.67
2019-02-09T20:28:07.221Z,41.57
2019-02-09T20:30:24.359Z,45.03
2019-02-09T20:32:31.942Z,44.47
2019-02-09T20:34:39.677Z,45.13
2019-02-09T20:36:47.257Z,45.40
2019-02-09T20:38:54.891Z,46.13
2019-02-09T20:41:06.655Z,44.20
2019-02-09T20:43:16.578Z,42.93
2019-02-09T20:45:24.076Z,41.80
2019-02-09T20:47:31.747Z,45.03
2019-02-09T20:49:40.919Z,44.03
2019-02-09T20:51:48.511Z,42.03
2019-02-09T20:53:55.969Z,41.77
2019-02-09T20:56:03.329Z,46.20
2019-02-09T20:58:12.830Z,45.87
2019-02-09T21:00:22.227Z,46.47
2019-02-09T21:02:29.633Z,44.03
2019-02-09T21:04:37.145Z,39.83
2019-02-09T21:06:44.599Z,39.67
2019-02-09T21:08:52.609Z,54.97
2019-02-09T21:11:00.256Z,52.60
2019-02-09T21:13:08.374Z,47.83
2019-02-09T21:15:16.264Z,42.53
2019-02-09T21:17:23.895Z,49.10
2019-02-09T21:19:31.330Z,45.37
2019-02-09T21:21:38.693Z,43.27
2019-02-09T21:23:46.282Z,44.43
2019-02-09T21:25:53.547Z,40.53
2019-02-09T21:28:01.113Z,36.90
2019-02-09T21:30:09.774Z,43.87
2019-02-09T21:32:17.268Z,45.70
2019-02-09T21:34:24.830Z,39.43
2019-02-09T21:36:32.493Z,40.17
2019-02-09T21:38:40.043Z,36.97
2019-02-09T21:40:47.298Z,38.40
2019-02-09T21:42:55.943Z,43.37
2019-02-09T21:45:03.569Z,40.70
2019-02-09T21:47:11.331Z,36.80
2019-02-09T21:49:19.153Z,35.27
2019-02-09T21:51:26.625Z,39.80
2019-02-09T21:53:34.190Z,36.77
2019-02-09T21:55:42.288Z,39.77
2019-02-09T21:57:49.882Z,35.67
2019-02-09T21:59:57.402Z,35.80
2019-02-09T22:02:05.260Z,36.83
2019-02-09T22:04:13.391Z,38.97
2019-02-09T22:06:21.267Z,36.47
2019-02-09T22:08:28.906Z,36.77
2019-02-09T22:10:36.427Z,40.80
2019-02-09T22:12:44.417Z,36.77
2019-02-09T22:14:52.263Z,35.53
2019-02-09T22:17:00.154Z,38.43
2019-02-09T22:19:07.667Z,38.37
2019-02-09T22:21:15.146Z,42.20
2019-02-09T22:23:22.838Z,41.63
2019-02-09T22:25:30.209Z,37.33
2019-02-09T22:27:38.377Z,39.40
2019-02-09T22:29:46.783Z,35.50
2019-02-09T22:31:54.788Z,49.67
2019-02-09T22:34:02.546Z,45.67
2019-02-09T22:36:09.956Z,37.13
2019-02-09T22:38:17.540Z,37.83
2019-02-09T22:40:31.064Z,48.80
2019-02-09T22:42:38.758Z,38.63
2019-02-09T22:44:46.662Z,38.50
2019-02-09T22:46:55.542Z,35.97
2019-02-09T22:49:04.739Z,40.80
2019-02-09T22:51:12.445Z,80.43
2019-02-09T22:53:20.131Z,75.73
2019-02-09T22:55:28.119Z,37.07
2019-02-09T22:57:35.713Z,46.83
2019-02-09T22:59:43.681Z,42.03
2019-02-09T23:01:52.342Z,80.07
2019-02-09T23:04:28.151Z,37.07
2019-02-09T23:07:04.486Z,153.77
2019-02-09T23:09:22.466Z,183.53
2019-02-09T23:11:37.337Z,51.57
2019-02-09T23:13:55.021Z,36.70
2019-02-09T23:16:11.730Z,143.00
2019-02-09T23:18:19.738Z,36.37
2019-02-09T23:20:27.342Z,33.13
2019-02-09T23:22:34.812Z,59.00
2019-02-09T23:24:45.245Z,48.17
2019-02-09T23:26:52.792Z,46.03
2019-02-09T23:29:00.538Z,46.70
2019-02-09T23:31:08.225Z,36.10
2019-02-09T23:33:15.983Z,41.27
2019-02-09T23:35:23.339Z,45.23
2019-02-09T23:37:30.911Z,34.67
2019-02-09T23:39:38.552Z,51.87
2019-02-09T23:41:46.059Z,30.07
2019-02-09T23:43:53.647Z,39.17
2019-02-09T23:46:01.364Z,35.93
2019-02-09T23:48:08.818Z,33.83
2019-02-09T23:50:16.364Z,72.77
2019-02-09T23:52:23.993Z,46.43
2019-02-09T23:54:31.485Z,47.67
2019-02-09T23:56:38.943Z,44.23
2019-02-09T23:58:46.472Z,38.73
